createdAt,value
2022-12-11T00:02:07.402Z,101309.25
2022-12-11T00:04:34.026Z,101302.63
2022-12-11T00:07:00.589Z,101308.47
2022-12-11T00:09:27.275Z,101297.75
2022-12-11T00:11:53.867Z,101301.72
2022-12-11T00:14:20.558Z,101301.72
2022-12-11T00:16:48.553Z,101299.03
2022-12-11T00:19:15.838Z,101303.13
2022-12-11T00:21:42.392Z,101302.34
2022-12-11T00:24:08.997Z,101305.97
2022-12-11T00:26:35.530Z,101304.09
2022-12-11T00:29:02.126Z,101299.81
2022-12-11T00:31:28.707Z,101305.97
2022-12-11T00:33:55.362Z,101308.66
2022-12-11T00:36:25.498Z,101305.66
2022-12-11T00:38:53.754Z,101302.19
2022-12-11T00:41:21.315Z,101304.09
2022-12-11T00:43:48.364Z,101302.97
2022-12-11T00:46:15.086Z,101293.84
2022-12-11T00:48:41.726Z,101294.63
2022-12-11T00:51:08.497Z,101286.31
2022-12-11T00:53:35.098Z,101289.47
2022-12-11T00:56:01.649Z,101285.19
2022-12-11T00:58:28.445Z,101287.56
2022-12-11T01:00:55.122Z,101285.97
2022-12-11T01:03:21.782Z,101283.00
2022-12-11T01:05:53.415Z,101291.53
2022-12-11T01:08:20.073Z,101276.84
2022-12-11T01:10:46.901Z,101280.31
2022-12-11T01:13:13.459Z,101269.59
2022-12-11T01:15:43.716Z,101282.69
2022-12-11T01:18:13.492Z,101275.44
2022-12-11T01:20:43.280Z,101286.16
2022-12-11T01:23:12.965Z,101284.28
2022-12-11T01:25:40.079Z,101284.59
2022-12-11T01:28:07.451Z,101286.94
2022-12-11T01:30:34.605Z,101288.06
2022-12-11T01:33:01.358Z,101292.31
2022-12-11T01:35:28.229Z,101293.09
2022-12-11T01:37:55.056Z,101288.06
2022-12-11T01:40:22.460Z,101291.22
2022-12-11T01:42:49.108Z,101292.78
2022-12-11T01:45:16.617Z,101290.91
2022-12-11T01:47:44.201Z,101288.69
2022-12-11T01:50:11.433Z,101286.66
2022-12-11T01:52:38.265Z,101288.22
2022-12-11T01:55:05.464Z,101295.97
2022-12-11T01:57:32.333Z,101289.81
2022-12-11T01:59:58.878Z,101284.75
2022-12-11T02:02:29.483Z,101276.22
2022-12-11T02:04:56.322Z,101279.38
2022-12-11T02:07:23.513Z,101284.44
2022-12-11T02:09:50.120Z,101271.84
2022-12-11T02:12:30.690Z,101278.47
2022-12-11T02:15:04.418Z,101270.91
2022-12-11T02:17:37.969Z,101268.53
2022-12-11T02:20:23.662Z,101270.13
2022-12-11T02:23:20.200Z,101262.72
2022-12-11T02:26:12.303Z,101261.59
2022-12-11T02:28:45.637Z,101257.81
2022-12-11T02:31:23.823Z,101252.78
2022-12-11T02:34:01.525Z,101262.09
2022-12-11T02:36:31.823Z,101251.34
2022-12-11T02:39:01.471Z,101248.69
2022-12-11T02:41:29.937Z,101241.72
2022-12-11T02:43:59.123Z,101242.19
2022-12-11T02:46:28.340Z,101236.84
2022-12-11T02:48:56.439Z,101242.69
2022-12-11T02:51:28.307Z,101248.06
2022-12-11T02:53:58.200Z,101251.84
2022-12-11T02:56:33.564Z,101256.09
2022-12-11T02:59:06.163Z,101251.22
2022-12-11T03:01:32.822Z,101250.91
2022-12-11T03:03:59.518Z,101249.81
2022-12-11T03:06:36.287Z,101252.47
2022-12-11T03:09:04.570Z,101254.09
2022-12-11T03:11:31.101Z,101247.94
2022-12-11T03:13:58.012Z,101253.28
2022-12-11T03:16:36.031Z,101245.56
2022-12-11T03:19:18.089Z,101250.91
2022-12-11T03:21:49.552Z,101258.16
2022-12-11T03:24:25.605Z,101264.03
2022-12-11T03:27:00.988Z,101257.25
2022-12-11T03:29:54.000Z,101259.13
2022-12-11T03:32:25.397Z,101264.03
2022-12-11T03:34:59.751Z,101254.88
2022-12-11T03:37:31.332Z,101254.38
2022-12-11T03:40:03.211Z,101260.53
2022-12-11T03:42:30.651Z,101252.47
2022-12-11T03:44:59.948Z,101256.28
2022-12-11T03:47:28.786Z,101253.59
2022-12-11T03:49:57.124Z,101255.16
2022-12-11T03:52:27.370Z,101251.69
2022-12-11T03:54:57.775Z,101253.28
2022-12-11T03:57:29.219Z,101245.56
2022-12-11T03:59:55.958Z,101239.88
2022-12-11T04:02:22.556Z,101233.72
2022-12-11T04:04:49.197Z,101233.72
2022-12-11T04:07:16.190Z,101236.72
2022-12-11T04:09:42.815Z,101242.88
2022-12-11T04:12:09.375Z,101242.56
2022-12-11T04:14:54.511Z,101236.88
2022-12-11T04:17:39.589Z,101238.78
2022-12-11T04:20:39.664Z,101239.06
2022-12-11T04:23:31.838Z,101240.97
2022-12-11T04:26:08.388Z,101243.34
2022-12-11T04:28:35.681Z,101238.00
2022-12-11T04:31:02.657Z,101227.28
2022-12-11T04:33:29.642Z,101226.47
2022-12-11T04:36:01.005Z,101230.25
2022-12-11T04:38:27.843Z,101222.22
2022-12-11T04:41:00.415Z,101226.78
2022-12-11T04:43:27.758Z,101228.69
2022-12-11T04:46:07.198Z,101218.75
2022-12-11T04:48:34.602Z,101218.44
2022-12-11T04:51:01.103Z,101216.53
2022-12-11T04:53:28.077Z,101216.84
2022-12-11T04:55:55.082Z,101211.47
2022-12-11T04:58:22.710Z,101210.22
2022-12-11T05:00:49.271Z,101214.78
2022-12-11T05:03:15.849Z,101217.16
2022-12-11T05:05:48.672Z,101218.25
2022-12-11T05:08:15.384Z,101228.19
2022-12-11T05:10:47.120Z,101230.09
2022-12-11T05:13:16.465Z,101226.31
2022-12-11T05:15:43.059Z,101231.66
2022-12-11T05:18:09.598Z,101233.88
2022-12-11T05:20:36.173Z,101228.19
2022-12-11T05:23:02.800Z,101228.19
2022-12-11T05:25:30.905Z,101225.53
2022-12-11T05:27:57.723Z,101220.47
2022-12-11T05:30:24.253Z,101227.72
2022-12-11T05:32:50.835Z,101222.66
2022-12-11T05:35:18.580Z,101221.88
2022-12-11T05:37:45.182Z,101211.94
2022-12-11T05:40:12.774Z,101213.84
2022-12-11T05:42:39.292Z,101213.84
2022-12-11T05:45:06.486Z,101211.63
2022-12-11T05:47:33.060Z,101211.63
2022-12-11T05:49:59.603Z,101211.94
2022-12-11T05:52:27.374Z,101211.16
2022-12-11T05:54:53.908Z,101220.28
2022-12-11T05:57:20.451Z,101216.81
2022-12-11T05:59:47.271Z,101214.13
2022-12-11T06:02:13.964Z,101208.28
2022-12-11T06:04:40.600Z,101203.41
2022-12-11T06:07:07.146Z,101204.19
2022-12-11T06:09:33.725Z,101203.41
2022-12-11T06:12:00.251Z,101205.00
2022-12-11T06:14:27.070Z,101208.16
2022-12-11T06:16:53.618Z,101198.84
2022-12-11T06:19:20.327Z,101196.16
2022-12-11T06:21:48.970Z,101198.84
2022-12-11T06:24:15.624Z,101203.88
2022-12-11T06:26:42.214Z,101209.75
2022-12-11T06:29:12.502Z,101210.03
2022-12-11T06:31:39.690Z,101201.50
2022-12-11T06:34:06.395Z,101205.59
2022-12-11T06:36:32.996Z,101205.59
2022-12-11T06:39:00.840Z,101205.78
2022-12-11T06:41:27.474Z,101210.66
2022-12-11T06:43:54.027Z,101213.34
2022-12-11T06:46:20.846Z,101214.13
2022-12-11T06:48:48.713Z,101220.28
2022-12-11T06:51:18.336Z,101218.06
2022-12-11T06:53:44.957Z,101222.84
2022-12-11T06:56:15.161Z,101223.63
2022-12-11T06:58:42.930Z,101227.72
2022-12-11T07:01:16.288Z,101224.56
2022-12-11T07:03:43.639Z,101225.34
2022-12-11T07:06:10.289Z,101225.63
2022-12-11T07:08:36.892Z,101225.63
2022-12-11T07:11:06.539Z,101218.41
2022-12-11T07:13:33.847Z,101229.91
2022-12-11T07:16:01.987Z,101234.16
2022-12-11T07:18:29.067Z,101236.84
2022-12-11T07:20:58.903Z,101233.69
2022-12-11T07:23:26.725Z,101228.66
2022-12-11T07:25:53.768Z,101224.38
2022-12-11T07:28:20.577Z,101233.22
2022-12-11T07:30:47.211Z,101237.78
2022-12-11T07:33:13.848Z,101231.34
2022-12-11T07:35:40.438Z,101231.81
2022-12-11T07:38:07.191Z,101236.38
2022-12-11T07:40:34.606Z,101241.13
2022-12-11T07:43:01.107Z,101247.09
2022-12-11T07:45:27.861Z,101238.25
2022-12-11T07:51:43.877Z,101246.31
2022-12-11T07:54:52.356Z,101238.59
2022-12-11T07:57:18.970Z,101245.03
2022-12-11T07:59:46.790Z,101254.19
2022-12-11T08:02:13.339Z,101257.66
2022-12-11T08:04:40.011Z,101251.50
2022-12-11T08:07:07.748Z,101251.19
2022-12-11T08:09:34.371Z,101252.28
2022-12-11T08:12:00.992Z,101252.28
2022-12-11T08:14:27.692Z,101250.69
2022-12-11T08:16:54.303Z,101253.06
2022-12-11T08:19:20.990Z,101256.88
2022-12-11T08:21:47.566Z,101251.50
2022-12-11T08:24:16.392Z,101252.28
2022-12-11T08:26:42.962Z,101252.28
2022-12-11T08:29:10.114Z,101256.88
2022-12-11T08:31:36.839Z,101257.16
2022-12-11T08:34:03.500Z,101250.38
2022-12-11T08:36:30.121Z,101251.03
2022-12-11T08:38:57.236Z,101260.63
2022-12-11T08:41:26.749Z,101251.31
2022-12-11T08:43:55.135Z,101260.63
2022-12-11T08:46:24.527Z,101258.25
2022-12-11T08:48:51.832Z,101251.81
2022-12-11T08:51:22.430Z,101254.66
2022-12-11T08:53:50.324Z,101249.31
2022-12-11T08:56:20.475Z,101255.28
2022-12-11T08:58:47.963Z,101244.25
2022-12-11T09:01:21.807Z,101245.66
2022-12-11T09:03:50.276Z,101246.16
2022-12-11T09:06:20.218Z,101246.63
2022-12-11T09:08:52.164Z,101242.34
2022-12-11T09:11:21.975Z,101229.44
2022-12-11T09:13:48.702Z,101239.66
2022-12-11T09:16:19.489Z,101237.13
2022-12-11T09:18:48.601Z,101229.25
2022-12-11T09:21:17.226Z,101228.94
2022-12-11T09:23:43.840Z,101224.06
2022-12-11T09:26:13.762Z,101225.63
2022-12-11T09:28:46.171Z,101223.78
2022-12-11T09:31:23.811Z,101226.94
2022-12-11T09:33:52.102Z,101225.81
2022-12-11T09:36:19.055Z,101222.06
2022-12-11T09:38:46.282Z,101220.66
2022-12-11T09:41:25.363Z,101225.66
2022-12-11T09:44:00.543Z,101219.22
2022-12-11T09:46:33.808Z,101220.50
2022-12-11T09:55:28.459Z,101218.63
2022-12-11T10:00:45.914Z,101211.84
2022-12-11T10:03:35.051Z,101218.00
2022-12-11T10:06:14.553Z,101208.56
2022-12-11T10:08:54.736Z,101214.41
2022-12-11T10:11:42.527Z,101219.59
2022-12-11T10:14:30.337Z,101227.34
2022-12-11T10:17:04.096Z,101221.19
2022-12-11T10:19:32.713Z,101226.25
2022-12-11T10:22:01.068Z,101216.28
2022-12-11T10:25:10.116Z,101216.28
2022-12-11T10:27:32.010Z,101214.38
2022-12-11T10:30:08.593Z,101218.38
2022-12-11T10:32:40.009Z,101218.22
2022-12-11T10:35:07.319Z,101210.94
2022-12-11T10:37:33.899Z,101207.47
2022-12-11T10:40:08.341Z,101217.91
2022-12-11T10:42:58.493Z,101208.75
2022-12-11T10:45:25.072Z,101204.94
2022-12-11T10:48:02.590Z,101199.75
2022-12-11T10:50:29.387Z,101209.84
2022-12-11T10:52:55.948Z,101196.75
2022-12-11T10:55:29.608Z,101197.53
2022-12-11T11:01:32.179Z,101193.91
2022-12-11T11:04:14.458Z,101192.50
2022-12-11T11:10:03.256Z,101193.28
2022-12-11T11:12:31.574Z,101189.50
2022-12-11T11:15:19.930Z,101187.91
2022-12-11T11:17:55.818Z,101181.47
2022-12-11T11:20:27.733Z,101179.25
2022-12-11T11:23:02.673Z,101177.03
2022-12-11T11:25:35.479Z,101178.31
2022-12-11T11:28:06.084Z,101172.63
2022-12-11T11:30:37.321Z,101167.72
2022-12-11T11:33:12.458Z,101170.38
2022-12-11T11:35:45.505Z,101169.78
2022-12-11T11:38:24.784Z,101166.31
2022-12-11T11:41:07.573Z,101172.47
2022-12-11T11:43:48.532Z,101167.56
2022-12-11T11:46:16.440Z,101169.91
2022-12-11T11:48:52.442Z,101157.78
2022-12-11T11:51:28.400Z,101169.31
2022-12-11T11:54:00.596Z,101167.41
2022-12-11T11:56:37.999Z,101156.19
2022-12-11T11:59:38.533Z,101156.66
2022-12-11T12:02:19.373Z,101160.47
2022-12-11T12:04:52.191Z,101160.00
2022-12-11T12:07:51.251Z,101158.88
2022-12-11T12:10:27.505Z,101155.41
2022-12-11T12:13:23.831Z,101153.66
2022-12-11T12:16:02.124Z,101152.25
2022-12-11T12:21:25.562Z,101150.97
2022-12-11T12:23:53.027Z,101154.13
2022-12-11T12:26:31.692Z,101150.34
2022-12-11T12:29:23.456Z,101144.50
2022-12-11T12:31:50.290Z,101147.97
2022-12-11T12:34:31.502Z,101139.44
2022-12-11T12:37:06.118Z,101146.88
2022-12-11T12:39:49.237Z,101145.44
2022-12-11T12:42:37.468Z,101145.44
2022-12-11T12:45:13.640Z,101143.88
2022-12-11T12:47:43.424Z,101140.38
2022-12-11T12:50:15.265Z,101133.91
2022-12-11T12:52:42.615Z,101138.50
2022-12-11T12:55:31.875Z,101135.81
2022-12-11T12:58:03.253Z,101138.50
2022-12-11T13:00:41.176Z,101136.25
2022-12-11T13:03:18.506Z,101139.75
2022-12-11T13:06:06.148Z,101139.75
2022-12-11T13:08:46.341Z,101145.91
2022-12-11T13:11:16.045Z,101133.28
2022-12-11T13:13:54.479Z,101141.31
2022-12-11T13:16:25.721Z,101147.34
2022-12-11T13:18:53.610Z,101148.91
2022-12-11T13:21:37.903Z,101143.06
2022-12-11T13:24:13.539Z,101151.44
2022-12-11T13:26:41.150Z,101144.81
2022-12-11T13:29:31.658Z,101143.25
2022-12-11T13:32:02.028Z,101147.19
2022-12-11T13:34:33.818Z,101148.59
2022-12-11T13:37:03.021Z,101147.81
2022-12-11T13:39:32.361Z,101153.97
2022-12-11T13:42:02.490Z,101150.97
2022-12-11T13:44:34.367Z,101148.59
2022-12-11T13:47:04.193Z,101145.44
2022-12-11T13:49:36.878Z,101145.75
2022-12-11T13:52:04.932Z,101150.34
2022-12-11T13:54:36.017Z,101152.25
2022-12-11T13:57:17.998Z,101150.34
2022-12-11T13:59:53.160Z,101153.81
2022-12-11T14:02:25.444Z,101161.88
2022-12-11T14:04:56.106Z,101157.13
2022-12-11T14:07:30.672Z,101162.50
2022-12-11T14:10:02.654Z,101158.88
2022-12-11T14:12:30.778Z,101164.53
2022-12-11T14:14:59.882Z,101164.09
2022-12-11T14:17:29.726Z,101159.50
2022-12-11T14:19:59.306Z,101160.31
2022-12-11T14:22:28.316Z,101157.16
2022-12-11T14:24:58.383Z,101160.59
2022-12-11T14:27:27.406Z,101164.41
2022-12-11T14:29:54.282Z,101157.78
2022-12-11T14:32:32.552Z,101153.50
2022-12-11T14:35:04.275Z,101156.19
2022-12-11T14:37:31.939Z,101160.78
2022-12-11T14:40:08.232Z,101156.19
2022-12-11T14:42:41.037Z,101163.47
2022-12-11T14:45:14.332Z,101151.47
2022-12-11T14:47:43.345Z,101154.63
2022-12-11T14:50:19.968Z,101151.94
2022-12-11T14:52:50.947Z,101155.72
2022-12-11T14:55:25.877Z,101155.25
2022-12-11T14:57:57.736Z,101162.84
2022-12-11T15:00:28.487Z,101161.56
2022-12-11T15:03:02.495Z,101153.38
2022-12-11T15:05:30.141Z,101168.34
2022-12-11T15:08:04.015Z,101162.97
2022-12-11T15:10:37.140Z,101168.97
2022-12-11T15:13:06.418Z,101165.19
2022-12-11T15:15:44.937Z,101173.09
2022-12-11T15:18:22.628Z,101169.59
2022-12-11T15:20:54.821Z,101167.72
2022-12-11T15:23:21.583Z,101171.19
2022-12-11T15:25:58.036Z,101169.28
2022-12-11T15:28:30.334Z,101174.19
2022-12-11T15:31:02.218Z,101168.81
2022-12-11T15:33:34.065Z,101176.88
2022-12-11T15:36:05.364Z,101171.50
2022-12-11T15:38:40.587Z,101174.19
2022-12-11T15:41:14.733Z,101181.16
2022-12-11T15:43:41.635Z,101177.50
2022-12-11T15:46:08.326Z,101180.19
2022-12-11T15:48:42.091Z,101182.88
2022-12-11T15:51:09.759Z,101183.97
2022-12-11T15:53:36.400Z,101183.47
2022-12-11T15:56:03.299Z,101188.06
2022-12-11T15:58:30.209Z,101199.13
2022-12-11T16:00:57.857Z,101195.31
2022-12-11T16:03:26.107Z,101194.53
2022-12-11T16:05:53.430Z,101186.81
2022-12-11T16:08:22.759Z,101187.91
2022-12-11T16:10:53.287Z,101186.16
2022-12-11T16:13:20.127Z,101182.22
2022-12-11T16:15:48.800Z,101192.16
2022-12-11T16:18:20.512Z,101197.06
2022-12-11T16:20:48.367Z,101198.47
2022-12-11T16:23:16.419Z,101192.31
2022-12-11T16:25:45.717Z,101192.00
2022-12-11T16:28:15.455Z,101195.50
2022-12-11T16:30:43.742Z,101186.63
2022-12-11T16:33:13.271Z,101188.22
2022-12-11T16:35:42.027Z,101182.06
2022-12-11T16:38:12.243Z,101190.91
2022-12-11T16:40:39.020Z,101192.81
2022-12-11T16:43:05.884Z,101173.56
2022-12-11T16:45:33.536Z,101186.63
2022-12-11T16:48:03.538Z,101181.75
2022-12-11T16:50:30.185Z,101176.38
2022-12-11T16:52:57.150Z,101188.22
2022-12-11T16:55:23.856Z,101180.97
2022-12-11T16:57:50.461Z,101185.53
2022-12-11T17:00:17.443Z,101177.50
2022-12-11T17:02:44.143Z,101177.19
2022-12-11T17:05:11.215Z,101179.88
2022-12-11T17:07:38.079Z,101188.22
2022-12-11T17:10:07.060Z,101175.59
2022-12-11T17:12:33.662Z,101174.81
2022-12-11T17:15:05.193Z,101183.16
2022-12-11T17:17:31.832Z,101177.31
2022-12-11T17:19:58.653Z,101189.16
2022-12-11T17:22:25.519Z,101178.44
2022-12-11T17:24:52.150Z,101177.66
2022-12-11T17:27:18.784Z,101175.75
2022-12-11T17:29:45.483Z,101171.16
2022-12-11T17:32:12.112Z,101168.78
2022-12-11T17:34:38.915Z,101192.16
2022-12-11T17:37:06.146Z,101187.56
2022-12-11T17:39:32.941Z,101190.25
2022-12-11T17:41:59.726Z,101184.59
2022-12-11T17:44:30.322Z,101191.53
2022-12-11T17:46:58.135Z,101182.69
2022-12-11T17:49:24.906Z,101183.50
2022-12-11T17:51:53.213Z,101182.38
2022-12-11T17:54:20.155Z,101180.00
2022-12-11T17:56:46.946Z,101186.47
2022-12-11T17:59:13.623Z,101180.34
2022-12-11T18:01:40.322Z,101194.53
2022-12-11T18:04:06.976Z,101188.69
2022-12-11T18:06:33.705Z,101192.63
2022-12-11T18:09:01.467Z,101190.25
2022-12-11T18:11:28.148Z,101200.19
2022-12-11T18:13:55.034Z,101202.09
2022-12-11T18:16:27.343Z,101203.22
2022-12-11T18:18:54.382Z,101195.16
2022-12-11T18:21:27.703Z,101199.41
2022-12-11T18:23:54.955Z,101197.03
2022-12-11T18:26:22.299Z,101199.72
2022-12-11T18:28:52.430Z,101199.72
2022-12-11T18:31:20.970Z,101197.03
2022-12-11T18:33:48.563Z,101194.34
2022-12-11T18:36:16.734Z,101197.03
2022-12-11T18:38:47.079Z,101200.53
2022-12-11T18:41:16.058Z,101194.06
2022-12-11T18:43:42.798Z,101202.41
2022-12-11T18:46:12.675Z,101208.09
2022-12-11T18:48:39.899Z,101202.25
2022-12-11T18:51:09.691Z,101205.25
2022-12-11T18:53:39.156Z,101206.34
2022-12-11T18:56:12.852Z,101207.91
2022-12-11T18:58:39.847Z,101211.72
2022-12-11T19:01:09.540Z,101205.53
2022-12-11T19:03:36.884Z,101205.06
2022-12-11T19:06:13.186Z,101201.28
2022-12-11T19:08:40.215Z,101204.13
2022-12-11T19:11:07.404Z,101201.28
2022-12-11T19:13:34.672Z,101201.28
2022-12-11T19:16:01.819Z,101193.84
2022-12-11T19:18:28.509Z,101205.69
2022-12-11T19:21:04.871Z,101202.22
2022-12-11T19:23:35.196Z,101205.22
2022-12-11T19:26:02.401Z,101201.28
2022-12-11T19:28:29.297Z,101199.69
2022-12-11T19:30:56.058Z,101208.19
2022-12-11T19:33:22.840Z,101200.47
2022-12-11T19:35:49.544Z,101200.00
2022-12-11T19:38:16.187Z,101193.84
2022-12-11T19:40:44.397Z,101202.22
2022-12-11T19:43:11.730Z,101202.03
2022-12-11T19:45:38.621Z,101208.16
2022-12-11T19:48:05.764Z,101205.81
2022-12-11T19:50:34.493Z,101209.28
2022-12-11T19:53:01.192Z,101205.81
2022-12-11T19:55:27.834Z,101212.44
2022-12-11T19:57:55.454Z,101207.88
2022-12-11T20:00:22.163Z,101199.34
2022-12-11T20:02:49.161Z,101206.59
2022-12-11T20:05:16.184Z,101204.22
2022-12-11T20:07:44.706Z,101209.09
2022-12-11T20:10:11.634Z,101207.53
2022-12-11T20:12:38.277Z,101210.22
2022-12-11T20:15:06.155Z,101210.53
2022-12-11T20:17:33.474Z,101212.72
2022-12-11T20:20:00.450Z,101215.41
2022-12-11T20:22:27.225Z,101209.56
2022-12-11T20:24:53.815Z,101204.19
2022-12-11T20:27:20.416Z,101208.78
2022-12-11T20:29:47.008Z,101212.22
2022-12-11T20:32:15.737Z,101213.84
2022-12-11T20:34:44.694Z,101220.75
2022-12-11T20:37:11.343Z,101214.63
2022-12-11T20:39:38.026Z,101217.28
2022-12-11T20:42:05.804Z,101217.28
2022-12-11T20:44:32.736Z,101218.06
2022-12-11T20:46:59.371Z,101210.38
2022-12-11T20:49:26.167Z,101217.59
2022-12-11T20:51:52.959Z,101216.03
2022-12-11T20:54:19.559Z,101220.59
2022-12-11T20:56:46.308Z,101224.84
2022-12-11T20:59:13.321Z,101220.28
2022-12-11T21:01:40.825Z,101219.81
2022-12-11T21:04:07.575Z,101229.44
2022-12-11T21:06:36.471Z,101223.28
2022-12-11T21:09:09.399Z,101221.69
2022-12-11T21:11:36.033Z,101223.59
2022-12-11T21:14:02.808Z,101229.56
2022-12-11T21:16:29.550Z,101233.66
2022-12-11T21:18:57.705Z,101229.88
2022-12-11T21:21:25.249Z,101232.25
2022-12-11T21:23:52.068Z,101224.50
2022-12-11T21:26:19.313Z,101221.66
2022-12-11T21:28:45.861Z,101225.25
2022-12-11T21:31:15.189Z,101227.78
2022-12-11T21:33:42.957Z,101224.47
2022-12-11T21:39:02.875Z,101217.41
2022-12-11T21:41:29.461Z,101215.81
2022-12-11T21:45:14.528Z,101220.88
2022-12-11T21:46:43.634Z,101221.66
2022-12-11T21:49:10.342Z,101222.47
2022-12-11T21:51:43.982Z,101225.63
2022-12-11T21:54:16.721Z,101226.72
2022-12-11T21:56:43.798Z,101224.81
2022-12-11T21:59:10.472Z,101233.66
2022-12-11T22:01:42.115Z,101238.84
2022-12-11T22:04:10.808Z,101239.94
2022-12-11T22:06:37.517Z,101232.38
2022-12-11T22:09:05.185Z,101241.72
2022-12-11T22:11:32.882Z,101242.50
2022-12-11T22:13:59.481Z,101248.16
2022-12-11T22:16:26.350Z,101245.19
2022-12-11T22:18:53.462Z,101250.06
2022-12-11T22:21:20.086Z,101240.41
2022-12-11T22:23:47.817Z,101242.31
2022-12-11T22:26:19.305Z,101247.19
2022-12-11T22:28:46.079Z,101243.44
2022-12-11T22:31:15.304Z,101242.59
2022-12-11T22:33:42.487Z,101244.22
2022-12-11T22:36:10.415Z,101249.56
2022-12-11T22:38:37.139Z,101253.81
2022-12-11T22:41:18.960Z,101246.59
2022-12-11T22:43:48.840Z,101249.75
2022-12-11T22:46:17.260Z,101252.44
2022-12-11T22:48:44.025Z,101256.19
2022-12-11T22:51:10.839Z,101254.63
2022-12-11T22:53:37.598Z,101252.72
2022-12-11T22:56:06.046Z,101268.03
2022-12-11T22:58:33.378Z,101257.59
2022-12-11T23:01:00.865Z,101256.50
2022-12-11T23:03:27.818Z,101247.38
2022-12-11T23:05:54.940Z,101252.44
2022-12-11T23:08:21.713Z,101252.44
2022-12-11T23:10:48.638Z,101249.75
2022-12-11T23:13:15.247Z,101252.72
2022-12-11T23:15:41.776Z,101253.50
2022-12-11T23:18:08.372Z,101253.34
2022-12-11T23:20:34.927Z,101254.16
2022-12-11T23:23:01.717Z,101257.59
2022-12-11T23:25:29.829Z,101249.38
2022-12-11T23:27:56.466Z,101257.13
2022-12-11T23:30:23.999Z,101257.41
2022-12-11T23:32:50.688Z,101253.16
2022-12-11T23:35:17.435Z,101252.06
2022-12-11T23:37:43.994Z,101245.91
2022-12-11T23:40:11.425Z,101252.06
2022-12-11T23:42:38.000Z,101246.69
2022-12-11T23:45:04.962Z,101250.50
2022-12-11T23:47:31.533Z,101257.41
2022-12-11T23:49:58.361Z,101254.75
2022-12-11T23:52:26.628Z,101257.41
2022-12-11T23:54:55.327Z,101255.06
2022-12-11T23:57:22.051Z,101252.69
2022-12-11T23:59:48.597Z,101263.69
